Time;durP1;ratioP1;P1;durP2;ratioP2;P2;SDS_P1;SDS_P2;PMS_P1;PMS_P2;Temp;Humidity;BMP_temperature;BMP_pressure;BME280_temperature;BME280_humidity;BME280_pressure;Samples;Min_cycle;Max_cycle;Signal;HPM_P1;HPM_P2
2023/08/14 00:00:54;;;;;;;6.30;5.03;;;20.80;85.40;;;21.28;54.98;95357.25;5096824;28;20904;-57
2023/08/14 00:03:22;;;;;;;5.40;4.63;;;20.80;84.80;;;21.27;55.11;95360.97;5098175;28;20942;-57
2023/08/14 00:05:50;;;;;;;7.40;5.10;;;20.80;84.90;;;21.23;55.23;95361.56;5097779;28;20453;-57
2023/08/14 00:08:18;;;;;;;5.63;4.33;;;20.70;85.30;;;21.20;55.42;95360.09;5093784;28;21151;-55
2023/08/14 00:10:45;;;;;;;6.50;4.30;;;20.70;85.60;;;21.16;55.24;95366.81;5097471;28;20461;-58
2023/08/14 00:13:12;;;;;;;5.70;5.23;;;20.60;85.60;;;21.12;55.43;95361.03;5092481;28;20485;-58
2023/08/14 00:15:39;;;;;;;5.97;5.37;;;20.60;86.00;;;21.09;55.74;95361.44;5093881;28;20460;-58
2023/08/14 00:18:07;;;;;;;7.00;4.70;;;20.60;86.70;;;21.05;55.79;95357.50;5095824;28;20493;-58
2023/08/14 00:20:34;;;;;;;6.03;4.97;;;20.60;86.80;;;21.00;55.97;95365.25;5096572;28;20461;-56
2023/08/14 00:23:03;;;;;;;7.53;5.60;;;20.50;86.70;;;20.97;55.97;95365.66;5097321;28;20537;-58
2023/08/14 00:25:30;;;;;;;4.80;4.50;;;20.50;87.00;;;20.95;56.06;95367.69;5101260;28;20461;-56
2023/08/14 00:27:57;;;;;;;16.53;5.27;;;20.40;87.30;;;20.92;55.87;95368.91;5097866;28;20538;-57
2023/08/14 00:30:25;;;;;;;10.43;4.77;;;20.40;87.60;;;20.93;56.14;95372.41;5098279;28;20838;-59
2023/08/14 00:32:52;;;;;;;7.57;5.20;;;20.40;87.80;;;20.93;56.61;95372.41;5097899;28;20469;-57
2023/08/14 00:35:19;;;;;;;7.00;4.93;;;20.40;88.90;;;20.92;56.15;95368.91;5103741;28;21002;-57
2023/08/14 00:37:48;;;;;;;4.37;3.97;;;20.40;88.30;;;20.93;56.01;95370.56;5099708;28;20908;-58
2023/08/14 00:40:17;;;;;;;9.77;5.03;;;20.40;88.20;;;20.91;56.08;95369.94;5102499;28;20456;-57
2023/08/14 00:42:46;;;;;;;11.20;4.40;;;20.40;88.20;;;20.90;55.91;95367.47;5101877;28;20475;-58
2023/08/14 00:45:14;;;;;;;7.10;4.77;;;20.40;88.20;;;20.84;55.99;95370.91;5101688;28;21840;-57
2023/08/14 00:47:42;;;;;;;4.80;4.40;;;20.30;88.10;;;20.78;55.99;95365.28;5100595;28;20473;-55
2023/08/14 00:50:10;;;;;;;7.07;5.13;;;20.30;88.10;;;20.73;55.95;95373.06;5100092;28;20990;-57
2023/08/14 00:52:40;;;;;;;5.60;5.10;;;20.20;88.30;;;20.67;56.02;95368.47;5099539;28;20469;-56
2023/08/14 00:55:10;;;;;;;4.23;3.83;;;20.20;88.40;;;20.62;56.56;95370.84;5098965;28;20457;-57
2023/08/14 00:57:39;;;;;;;6.23;5.33;;;20.10;88.60;;;20.56;56.29;95363.59;5098547;28;21112;-56
2023/08/14 01:00:09;;;;;;;4.57;4.20;;;20.10;88.80;;;20.48;56.34;95366.38;5099974;28;20457;-57
2023/08/14 01:02:36;;;;;;;5.17;4.70;;;20.00;89.00;;;20.41;56.79;95367.13;5100375;28;20453;-57
2023/08/14 01:05:03;;;;;;;4.90;4.50;;;20.00;89.80;;;20.36;56.89;95368.72;5095248;28;20554;-56
2023/08/14 01:07:31;;;;;;;4.77;4.37;;;19.90;90.00;;;20.30;56.69;95364.94;5095108;28;20493;-58
2023/08/14 01:09:58;;;;;;;6.60;4.17;;;19.80;89.80;;;20.24;57.14;95371.03;5095980;28;20472;-57
2023/08/14 01:12:37;;;;;;;8.40;4.97;;;19.80;90.20;;;20.18;57.23;95364.59;5094476;28;20464;-59
2023/08/14 01:15:11;;;;;;;9.37;4.70;;;19.70;90.40;;;20.14;57.44;95359.81;5095870;28;20476;-56
2023/08/14 01:17:39;;;;;;;7.00;4.87;;;19.70;90.40;;;20.11;57.44;95360.19;5096957;28;20493;-57
2023/08/14 01:20:08;;;;;;;5.57;5.07;;;19.70;90.70;;;20.05;57.28;95357.25;5097087;28;20450;-56
2023/08/14 01:22:44;;;;;;;7.33;4.60;;;19.60;90.70;;;20.00;57.60;95362.34;5097365;28;20526;-56
2023/08/14 01:25:27;;;;;;;7.73;4.60;;;19.50;90.80;;;19.97;57.69;95354.72;5095938;28;20557;-56
2023/08/14 01:27:55;;;;;;;8.60;4.80;;;19.50;90.80;;;19.93;57.38;95358.75;5096349;28;20546;-57
2023/08/14 01:30:23;;;;;;;5.50;5.00;;;19.50;90.70;;;19.92;57.49;95354.41;5095136;28;20453;-57
2023/08/14 01:32:50;;;;;;;5.87;5.37;;;19.40;91.00;;;19.91;57.64;95363.47;5094260;28;21045;-56
2023/08/14 01:35:18;;;;;;;11.00;4.80;;;19.40;91.20;;;19.91;58.22;95354.59;5094938;28;20467;-56
2023/08/14 01:37:49;;;;;;;5.50;5.03;;;19.40;91.50;;;19.90;57.75;95361.78;5097975;28;20499;-59
2023/08/14 01:40:21;;;;;;;7.50;4.60;;;19.40;91.60;;;19.88;58.17;95356.63;5100180;28;20491;-57
2023/08/14 01:42:52;;;;;;;7.00;4.90;;;19.40;91.70;;;19.86;58.04;95357.84;5099699;28;20565;-57
2023/08/14 01:45:20;;;;;;;9.37;4.83;;;19.40;91.60;;;19.85;58.10;95353.53;5098633;28;20472;-57
2023/08/14 01:47:48;;;;;;;5.70;5.20;;;19.40;91.70;;;19.85;58.24;95350.84;5099507;28;20492;-55
2023/08/14 01:50:15;;;;;;;5.20;4.80;;;19.40;91.70;;;19.84;57.72;95358.00;5098508;28;20488;-56
2023/08/14 01:52:42;;;;;;;6.00;5.17;;;19.40;91.70;;;19.83;57.57;95356.38;5099249;28;20473;-57
2023/08/14 01:55:10;;;;;;;5.70;3.93;;;19.40;91.60;;;19.84;57.43;95354.53;5100408;28;20830;-57
2023/08/14 01:57:37;;;;;;;13.90;4.53;;;19.40;91.50;;;19.84;57.42;95357.19;5097553;28;20469;-57
2023/08/14 02:00:09;;;;;;;4.60;4.30;;;19.40;91.50;;;19.85;58.08;95349.00;5099432;28;20457;-55
2023/08/14 02:02:37;;;;;;;5.07;4.67;;;19.40;91.50;;;19.83;57.58;95348.38;5098008;28;20576;-56
2023/08/14 02:05:04;;;;;;;5.80;5.20;;;19.40;91.40;;;19.86;57.20;95352.50;5096837;28;20535;-57
2023/08/14 02:07:32;;;;;;;5.90;4.30;;;19.40;91.60;;;19.86;57.31;95347.16;5098880;28;20517;-56
2023/08/14 02:09:59;;;;;;;4.90;4.50;;;19.40;91.30;;;19.87;57.31;95344.28;5097149;28;20453;-56
2023/08/14 02:12:28;;;;;;;5.53;5.03;;;19.40;91.20;;;19.88;56.91;95347.81;5098817;28;20461;-55
2023/08/14 02:14:56;;;;;;;6.87;5.13;;;19.40;91.30;;;19.86;57.26;95347.16;5096981;28;20933;-59
2023/08/14 02:17:27;;;;;;;4.13;3.77;;;19.40;91.20;;;19.88;57.15;95358.50;5100760;28;20857;-56
2023/08/14 02:19:54;;;;;;;8.63;4.80;;;19.40;91.30;;;19.84;57.37;95349.19;5095064;28;20485;-56
2023/08/14 02:22:22;;;;;;;9.87;5.07;;;19.40;91.10;;;19.83;57.47;95359.03;5098175;28;20453;-57
2023/08/14 02:24:49;;;;;;;4.70;4.23;;;19.40;91.20;;;19.81;57.27;95354.91;5094993;28;20453;-59
2023/08/14 02:27:16;;;;;;;4.60;4.23;;;19.40;91.30;;;19.79;57.18;95356.94;5101108;28;20446;-56
2023/08/14 02:29:43;;;;;;;5.00;4.60;;;19.30;91.30;;;19.75;57.09;95359.13;5095628;28;21042;-55
2023/08/14 02:32:11;;;;;;;4.53;4.07;;;19.30;91.40;;;19.74;57.10;95360.13;5097964;28;20474;-57
2023/08/14 02:34:45;;;;;;;5.37;4.80;;;19.20;91.40;;;19.72;57.83;95362.16;5095819;28;20799;-57
2023/08/14 02:37:13;;;;;;;10.40;5.30;;;19.20;91.60;;;19.68;57.35;95355.53;5095187;28;20452;-56
2023/08/14 02:39:40;;;;;;;4.73;4.30;;;19.20;91.60;;;19.64;57.35;95365.75;5096859;28;20519;-57
2023/08/14 02:42:08;;;;;;;4.73;4.20;;;19.20;91.60;;;19.62;57.53;95369.59;5097099;28;20457;-56
2023/08/14 02:44:35;;;;;;;7.03;5.23;;;19.20;91.70;;;19.56;57.98;95360.47;5091435;28;20473;-59
2023/08/14 02:47:03;;;;;;;5.43;4.57;;;19.10;91.70;;;19.58;57.40;95370.97;5093332;28;20536;-56
2023/08/14 02:49:30;;;;;;;5.13;4.73;;;19.10;91.70;;;19.55;57.91;95372.19;5094270;28;21086;-57
2023/08/14 02:51:58;;;;;;;8.03;5.60;;;19.10;91.90;;;19.51;58.06;95370.88;5094975;28;21045;-56
2023/08/14 02:54:26;;;;;;;7.60;4.57;;;19.00;91.80;;;19.47;58.23;95380.25;5097785;28;20461;-56
2023/08/14 02:56:53;;;;;;;6.43;5.70;;;19.00;91.90;;;19.44;57.82;95370.78;5097965;28;20963;-55
2023/08/14 02:59:20;;;;;;;4.50;4.20;;;19.00;92.00;;;19.41;57.87;95381.84;5096971;28;20526;-57
2023/08/14 03:01:48;;;;;;;5.57;5.17;;;18.90;92.00;;;19.38;57.97;95376.00;5099952;28;20567;-57
2023/08/14 03:04:15;;;;;;;5.70;5.27;;;18.90;92.20;;;19.34;58.03;95379.03;5096757;28;20469;-58
2023/08/14 03:06:43;;;;;;;5.50;4.53;;;18.90;92.20;;;19.32;58.31;95380.25;5097140;28;20476;-57
2023/08/14 03:09:11;;;;;;;6.83;4.97;;;18.90;92.30;;;19.28;57.92;95378.94;5095318;28;20481;-56
2023/08/14 03:11:39;;;;;;;10.33;4.60;;;18.90;92.40;;;19.23;58.24;95376.81;5097205;28;20450;-56
2023/08/14 03:14:06;;;;;;;5.23;4.70;;;18.80;92.50;;;19.19;58.72;95378.19;5097477;28;20472;-56
2023/08/14 03:16:33;;;;;;;4.80;4.50;;;18.80;92.60;;;19.15;58.12;95371.56;5092694;28;20474;-57
2023/08/14 03:19:01;;;;;;;5.53;4.60;;;18.70;92.60;;;19.12;58.17;95372.75;5096045;28;20497;-57
2023/08/14 03:21:28;;;;;;;4.73;4.40;;;18.70;92.70;;;19.10;58.63;95381.94;5095332;28;20499;-56
2023/08/14 03:23:55;;;;;;;9.77;5.97;;;18.70;92.70;;;19.06;58.43;95373.47;5096097;28;20999;-58
2023/08/14 03:26:24;;;;;;;5.00;4.50;;;18.60;92.90;;;19.05;58.85;95371.00;5094394;28;20815;-59
2023/08/14 03:28:51;;;;;;;5.53;5.03;;;18.60;92.90;;;19.05;58.73;95371.00;5092633;28;20484;-55
2023/08/14 03:31:18;;;;;;;4.87;4.47;;;18.60;93.20;;;19.03;58.64;95376.50;5095407;28;20536;-56
2023/08/14 03:33:45;;;;;;;5.40;5.00;;;18.60;93.20;;;19.02;58.78;95382.84;5098996;28;20607;-58
2023/08/14 03:36:13;;;;;;;4.90;4.60;;;18.60;93.20;;;18.99;58.84;95378.72;5086870;28;20465;-57
2023/08/14 03:38:40;;;;;;;6.20;5.60;;;18.60;93.20;;;18.98;58.57;95385.03;5092752;28;20574;-56
2023/08/14 03:41:07;;;;;;;7.60;5.63;;;18.50;93.10;;;18.96;59.25;95378.22;5094945;28;20453;-58
2023/08/14 03:43:36;;;;;;;5.33;4.90;;;18.50;93.30;;;18.94;59.20;95373.06;5097335;28;20510;-58
2023/08/14 03:46:03;;;;;;;7.80;4.83;;;18.50;93.40;;;18.94;59.16;95375.72;5087694;28;20525;-56
2023/08/14 03:48:30;;;;;;;5.20;4.30;;;18.50;93.40;;;18.93;58.68;95371.44;5091338;28;20994;-58
2023/08/14 03:50:58;;;;;;;4.93;4.50;;;18.50;93.50;;;18.92;59.21;95372.44;5089679;28;20453;-57
2023/08/14 03:53:25;;;;;;;11.67;5.87;;;18.50;93.60;;;18.91;59.12;95367.28;5099105;28;20461;-57
2023/08/14 03:55:52;;;;;;;10.33;6.73;;;18.50;93.90;;;18.91;58.86;95367.28;5095418;28;20487;-58
2023/08/14 03:58:20;;;;;;;6.90;4.90;;;18.50;93.60;;;18.91;59.30;95372.59;5095551;27;20468;-58
2023/08/14 04:00:48;;;;;;;6.50;5.93;;;18.50;93.80;;;18.92;58.95;95369.75;5101938;28;20838;-57
2023/08/14 04:03:16;;;;;;;6.83;5.30;;;18.50;93.80;;;18.93;58.94;95374.09;5095478;28;20570;-57
2023/08/14 04:05:43;;;;;;;7.00;6.33;;;18.50;93.80;;;18.92;59.24;95369.75;5095976;28;20465;-58
2023/08/14 04:08:10;;;;;;;6.30;4.90;;;18.50;94.00;;;18.95;59.52;95376.59;5095100;28;20641;-58
2023/08/14 04:10:38;;;;;;;10.73;4.77;;;18.50;94.00;;;18.95;59.49;95373.91;5099129;28;21474;-57
2023/08/14 04:13:06;;;;;;;8.93;5.50;;;18.50;94.00;;;18.96;59.53;95376.41;5094927;28;20465;-58
2023/08/14 04:15:33;;;;;;;11.00;6.03;;;18.50;94.00;;;18.98;59.03;95376.22;5095951;28;20453;-58
2023/08/14 04:18:02;;;;;;;7.27;5.07;;;18.50;94.00;;;19.02;59.26;95376.69;5098099;28;20469;-56
2023/08/14 04:20:29;;;;;;;6.00;5.20;;;18.60;94.10;;;19.05;59.47;95384.31;5099690;28;20584;-57
2023/08/14 04:22:56;;;;;;;11.00;5.37;;;18.60;94.10;;;19.09;59.89;95388.28;5100211;28;20469;-58
2023/08/14 04:25:24;;;;;;;7.30;5.37;;;18.60;94.20;;;19.11;59.62;95380.94;5103466;28;21454;-58
2023/08/14 04:27:51;;;;;;;5.17;4.77;;;18.70;94.30;;;19.14;59.56;95399.25;5102574;28;20500;-58
2023/08/14 04:30:18;;;;;;;7.93;5.27;;;18.70;94.20;;;19.15;59.03;95391.06;5099111;28;20907;-58
2023/08/14 04:32:45;;;;;;;7.93;5.50;;;18.70;94.60;;;19.17;59.68;95399.69;5098823;28;20481;-59
2023/08/14 04:35:14;;;;;;;5.43;4.90;;;18.70;94.40;;;19.19;59.46;95399.53;5101349;28;20474;-58
2023/08/14 04:37:42;;;;;;;8.00;4.90;;;18.70;94.10;;;19.20;59.55;95395.84;5099726;28;20511;-58
2023/08/14 04:40:10;;;;;;;5.33;4.83;;;18.80;94.30;;;19.25;59.11;95395.31;5097439;28;21060;-56
2023/08/14 04:42:38;;;;;;;5.40;4.90;;;18.80;94.20;;;19.29;59.45;95397.44;5094258;28;20557;-57
2023/08/14 04:45:07;;;;;;;6.13;4.87;;;18.80;94.20;;;19.33;58.68;95396.06;5096395;28;20454;-59
2023/08/14 04:47:34;;;;;;;5.10;4.67;;;18.90;93.90;;;19.37;58.68;95401.06;5096256;28;20453;-57
2023/08/14 04:50:01;;;;;;;13.47;5.07;;;18.90;94.00;;;19.39;58.56;95401.69;5094964;28;20458;-55
2023/08/14 04:52:30;;;;;;;9.73;5.40;;;18.90;93.40;;;19.43;58.29;95401.16;5094736;28;20940;-59
2023/08/14 04:54:57;;;;;;;9.63;4.80;;;19.00;93.40;;;19.45;58.66;95399.13;5088210;28;20454;-58
2023/08/14 04:57:25;;;;;;;17.63;4.67;;;19.00;93.40;;;19.51;57.82;95401.06;5089455;28;20980;-59
2023/08/14 04:59:52;;;;;;;5.57;5.00;;;19.00;93.20;;;19.55;58.24;95398.88;5090711;28;20478;-59
2023/08/14 05:02:20;;;;;;;6.93;4.40;;;19.10;93.00;;;19.61;57.94;95402.63;5087872;28;20495;-58
2023/08/14 05:04:47;;;;;;;12.57;5.57;;;19.10;92.90;;;19.66;57.76;95401.06;5093878;28;20458;-58
2023/08/14 05:07:14;;;;;;;16.43;4.50;;;19.20;93.00;;;19.74;57.88;95407.34;5086986;28;21008;-59
2023/08/14 05:09:43;;;;;;;4.63;4.30;;;19.30;93.10;;;19.79;57.32;95402.31;5096300;28;21016;-58
2023/08/14 05:12:10;;;;;;;11.90;4.27;;;19.30;92.80;;;19.90;57.56;95406.38;5094377;28;20459;-60
2023/08/14 05:14:38;;;;;;;12.07;5.57;;;19.40;92.60;;;20.02;57.48;95413.72;5090008;28;20844;-57
2023/08/14 05:17:05;;;;;;;8.80;5.90;;;19.50;92.70;;;20.13;57.21;95408.94;5091203;28;20473;-57
2023/08/14 05:19:32;;;;;;;7.10;4.57;;;19.60;92.50;;;20.26;57.12;95402.91;5089561;28;20508;-57
2023/08/14 05:22:00;;;;;;;13.23;4.30;;;19.70;92.10;;;20.32;56.48;95405.66;5088716;28;20710;-56
2023/08/14 05:24:27;;;;;;;8.43;5.10;;;19.80;91.70;;;20.42;56.64;95408.88;5089644;28;20481;-57
2023/08/14 05:26:56;;;;;;;7.57;4.93;;;19.90;91.80;;;20.50;56.03;95399.91;5089332;28;20818;-58
2023/08/14 05:29:23;;;;;;;12.10;4.60;;;20.00;91.60;;;20.63;56.16;95403.75;5095689;28;21007;-58
2023/08/14 05:31:51;;;;;;;7.53;4.83;;;20.10;91.60;;;20.72;55.84;95406.13;5088873;28;20464;-56
2023/08/14 05:34:18;;;;;;;10.03;4.63;;;20.20;91.20;;;20.86;55.64;95400.94;5094912;28;21137;-57
2023/08/14 05:36:45;;;;;;;16.00;4.50;;;20.30;91.20;;;21.01;55.52;95414.25;5091298;28;21000;-58
2023/08/14 05:39:12;;;;;;;8.17;5.50;;;20.40;91.10;;;21.21;55.41;95407.22;5094685;28;20497;-56
2023/08/14 05:41:40;;;;;;;11.40;5.17;;;20.60;91.00;;;21.42;55.08;95411.69;5090953;28;21291;-57
2023/08/14 05:44:09;;;;;;;11.47;5.50;;;20.80;90.70;;;21.64;54.57;95407.19;5090922;28;20485;-57
2023/08/14 05:46:36;;;;;;;7.93;4.80;;;21.00;90.60;;;21.90;54.07;95412.88;5089293;28;20464;-57
2023/08/14 05:49:04;;;;;;;13.13;5.50;;;21.20;90.00;;;22.11;53.33;95410.13;5087745;28;20476;-58
2023/08/14 05:51:32;;;;;;;12.33;5.30;;;21.50;89.40;;;22.36;52.92;95410.47;5088702;28;20495;-56
2023/08/14 05:53:59;;;;;;;14.83;5.37;;;21.70;88.00;;;22.58;52.96;95421.06;5086606;28;20824;-58
2023/08/14 05:56:27;;;;;;;8.93;5.40;;;21.90;87.00;;;22.77;52.25;95418.66;5093469;28;20810;-58
2023/08/14 05:58:57;;;;;;;9.03;5.47;;;22.10;85.20;;;22.96;51.21;95411.66;5090618;28;20531;-57
2023/08/14 06:01:26;;;;;;;13.20;5.30;;;22.30;84.40;;;23.12;50.67;95408.63;5092201;28;20460;-57
2023/08/14 06:03:54;;;;;;;5.50;4.70;;;22.40;83.60;;;23.30;50.53;95415.25;5089925;28;20522;-58
2023/08/14 06:06:22;;;;;;;8.70;5.00;;;22.60;82.60;;;23.42;49.94;95413.59;5087061;28;20532;-58
2023/08/14 06:08:49;;;;;;;6.13;5.23;;;22.80;81.60;;;23.57;50.10;95413.38;5088311;28;21309;-58
2023/08/14 06:11:16;;;;;;;5.80;5.10;;;22.90;80.40;;;23.73;49.00;95412.94;5092344;28;21016;-58
2023/08/14 06:13:44;;;;;;;5.30;4.87;;;23.10;79.70;;;23.89;48.88;95411.72;5091618;28;20900;-58
2023/08/14 06:16:12;;;;;;;6.30;4.53;;;23.30;79.40;;;24.08;49.04;95409.22;5088657;28;21054;-57
2023/08/14 06:18:40;;;;;;;5.23;4.53;;;23.40;78.50;;;24.29;48.18;95411.63;5085036;28;21029;-58
2023/08/14 06:21:08;;;;;;;5.77;5.10;;;23.60;78.10;;;24.45;48.09;95404.13;5090375;28;20489;-61
2023/08/14 06:23:35;;;;;;;12.40;5.20;;;23.80;77.30;;;24.65;48.32;95410.25;5091197;28;20578;-58
2023/08/14 06:26:02;;;;;;;7.77;5.67;;;23.90;77.20;;;24.86;47.73;95398.34;5092037;28;20460;-59
2023/08/14 06:28:30;;;;;;;8.03;5.60;;;24.10;76.70;;;25.07;47.45;95396.34;5089191;28;20517;-57
2023/08/14 06:31:02;;;;;;;7.43;4.80;;;24.30;75.90;;;25.30;46.91;95401.19;5088189;28;20453;-56
2023/08/14 06:33:29;;;;;;;14.33;5.03;;;24.50;75.20;;;25.50;46.75;95400.19;5089065;28;20505;-56
2023/08/14 06:35:58;;;;;;;11.37;5.30;;;24.80;74.60;;;25.65;46.17;95406.06;5084952;28;20461;-57
2023/08/14 06:38:25;;;;;;;13.93;4.70;;;24.90;73.50;;;25.81;45.99;95404.69;5096013;28;20468;-57
2023/08/14 06:40:52;;;;;;;12.43;5.70;;;25.00;73.30;;;25.98;45.48;95404.97;5089444;28;20497;-58
2023/08/14 06:43:20;;;;;;;21.63;5.53;;;25.20;72.10;;;26.09;45.08;95404.22;5094541;28;20488;-58
2023/08/14 06:45:47;;;;;;;5.97;5.07;;;25.40;71.60;;;26.21;44.81;95404.31;5092236;28;20980;-57
2023/08/14 06:48:15;;;;;;;10.50;5.00;;;25.40;70.60;;;26.37;44.75;95405.56;5092586;28;20473;-58
2023/08/14 06:50:42;;;;;;;13.97;5.77;;;25.60;71.10;;;26.55;44.39;95407.38;5089150;28;20552;-57
2023/08/14 06:53:10;;;;;;;7.43;4.23;;;25.80;70.00;;;26.76;44.13;95410.72;5089975;28;21223;-58
2023/08/14 06:55:38;;;;;;;10.60;3.70;;;26.00;69.70;;;26.93;43.62;95400.91;5084505;28;20522;-57
2023/08/14 06:58:05;;;;;;;4.87;4.40;;;26.10;68.40;;;27.08;43.17;95408.59;5088951;28;20522;-58
2023/08/14 07:00:32;;;;;;;11.60;4.80;;;26.30;67.40;;;27.32;43.00;95411.38;5086672;28;21024;-57
2023/08/14 07:02:59;;;;;;;7.07;4.43;;;26.50;67.50;;;27.53;42.73;95413.53;5089600;28;20461;-58
2023/08/14 07:05:27;;;;;;;6.30;4.10;;;26.70;66.50;;;27.65;41.71;95410.84;5090849;28;20950;-57
2023/08/14 07:07:54;;;;;;;5.37;4.83;;;26.90;65.10;;;27.71;41.97;95407.19;5089354;28;20486;-59
2023/08/14 07:10:23;;;;;;;7.43;4.60;;;27.00;64.90;;;27.81;41.77;95409.31;5089443;28;20456;-56
2023/08/14 07:12:50;;;;;;;7.77;5.70;;;27.10;64.00;;;28.00;41.56;95417.34;5092264;28;20465;-56
2023/08/14 07:15:17;;;;;;;8.27;4.20;;;27.30;64.30;;;28.23;41.31;95422.72;5094056;28;20536;-57
2023/08/14 07:17:44;;;;;;;7.00;4.10;;;27.40;63.70;;;28.41;40.52;95421.75;5086874;28;20828;-57
2023/08/14 07:20:13;;;;;;;6.63;3.70;;;27.60;62.70;;;28.55;39.99;95403.38;5087350;28;20481;-57
2023/08/14 07:22:40;;;;;;;11.50;4.07;;;27.80;62.10;;;28.77;39.52;95413.56;5088820;28;20538;-57
2023/08/14 07:25:08;;;;;;;8.47;3.80;;;28.00;61.50;;;28.97;39.37;95419.38;5088930;28;21266;-57
2023/08/14 07:27:37;;;;;;;7.53;4.23;;;28.20;60.90;;;29.12;39.10;95412.59;5092874;28;21009;-58
2023/08/14 07:30:06;;;;;;;9.53;4.43;;;28.40;60.30;;;29.24;39.37;95410.66;5091570;28;20445;-58
2023/08/14 07:32:33;;;;;;;7.73;4.13;;;28.50;60.10;;;29.38;39.36;95415.78;5095392;28;21021;-57
2023/08/14 07:35:00;;;;;;;17.20;4.60;;;28.60;60.10;;;29.60;39.47;95411.25;5095514;28;20445;-57
2023/08/14 07:37:27;;;;;;;4.57;3.80;;;28.80;60.20;;;29.90;38.48;95410.13;5093453;28;20493;-59
2023/08/14 07:39:55;;;;;;;11.73;5.00;;;29.00;59.50;;;30.16;37.47;95407.78;5094314;28;20974;-57
2023/08/14 07:42:22;;;;;;;8.63;3.53;;;29.30;58.30;;;30.26;37.17;95410.63;5095896;28;20276;-57
2023/08/14 07:44:51;;;;;;;8.80;3.23;;;29.40;57.70;;;30.28;36.96;95411.19;5094389;28;20253;-56
2023/08/14 07:47:18;;;;;;;8.40;3.30;;;29.50;56.60;;;30.29;36.30;95410.13;5089946;28;20457;-58
2023/08/14 07:49:45;;;;;;;4.47;3.43;;;29.50;56.10;;;30.43;36.75;95404.34;5090427;28;20452;-57
2023/08/14 07:52:13;;;;;;;4.17;3.33;;;29.70;56.30;;;30.67;36.37;95399.50;5092962;28;20245;-56
2023/08/14 07:54:40;;;;;;;6.87;3.20;;;29.80;55.20;;;30.92;35.13;95399.78;5089829;27;20211;-58
2023/08/14 07:57:08;;;;;;;5.50;3.37;;;30.10;55.10;;;31.17;35.13;95403.03;5092368;28;20241;-57
2023/08/14 07:59:38;;;;;;;8.93;3.10;;;30.30;54.40;;;31.32;34.37;95400.47;5095818;28;20300;-57
2023/08/14 08:02:22;;;;;;;3.27;3.07;;;30.50;53.60;;;31.33;33.94;95404.81;5090205;28;20210;-58
2023/08/14 08:04:51;;;;;;;4.13;3.83;;;30.60;53.00;;;31.59;33.74;95407.81;5090347;28;20634;-57
2023/08/14 08:07:21;;;;;;;3.50;3.20;;;30.70;52.00;;;31.66;33.61;95405.66;5091279;28;20747;-57
2023/08/14 08:09:52;;;;;;;3.70;3.00;;;30.90;52.20;;;31.69;33.11;95409.78;5097509;28;20198;-57
2023/08/14 08:12:20;;;;;;;3.80;3.40;;;31.00;51.40;;;31.74;33.06;95402.47;5098622;28;20619;-59
2023/08/14 08:14:47;;;;;;;16.53;3.43;;;31.00;51.50;;;31.89;33.26;95409.91;5087796;27;20672;-58
2023/08/14 08:17:19;;;;;;;4.50;2.97;;;31.10;51.20;;;31.98;32.46;95415.72;5087700;28;20195;-57
2023/08/14 08:19:47;;;;;;;3.47;3.17;;;31.20;50.60;;;32.07;32.46;95408.69;5087383;28;20235;-58
2023/08/14 08:22:15;;;;;;;7.07;3.40;;;31.30;50.40;;;32.23;32.31;95406.91;5092222;28;20227;-57
2023/08/14 08:24:47;;;;;;;3.45;2.65;;;31.40;50.50;;;32.52;32.57;95404.59;5103035;28;20275;-57
2023/08/14 08:27:14;;;;;;;3.50;3.22;;;31.70;50.30;;;32.86;31.83;95409.66;5093496;28;20187;-58
2023/08/14 08:29:42;;;;;;;7.65;3.45;;;31.90;50.00;;;33.12;31.96;95398.78;5088311;28;20242;-57
2023/08/14 08:32:09;;;;;;;3.45;3.25;;;32.20;49.60;;;33.31;31.14;95411.94;5089176;28;20248;-58
2023/08/14 08:34:38;;;;;;;4.90;2.72;;;32.50;49.00;;;33.48;31.06;95395.31;5089033;28;20211;-56
2023/08/14 08:37:06;;;;;;;3.70;3.08;;;32.60;48.20;;;33.53;29.75;95395.34;5089832;28;20188;-59
2023/08/14 08:39:33;;;;;;;2.95;2.75;;;32.70;46.10;;;33.51;30.48;95400.22;5090522;28;20250;-59
2023/08/14 08:42:00;;;;;;;3.60;2.70;;;32.80;46.90;;;33.50;30.65;95396.69;5085968;28;20640;-57
2023/08/14 08:44:27;;;;;;;6.03;2.90;;;32.80;46.90;;;33.50;29.08;95402.16;5086161;28;20230;-57
2023/08/14 08:46:59;;;;;;;4.53;3.20;;;32.70;45.20;;;33.24;29.39;95402.13;5090895;28;20228;-58
2023/08/14 08:49:26;;;;;;;3.25;2.72;;;32.60;45.20;;;33.00;30.06;95395.50;5090991;28;20223;-57
2023/08/14 08:51:54;;;;;;;4.20;2.60;;;32.50;46.20;;;32.84;29.83;95397.38;5091612;28;20263;-58
2023/08/14 08:54:22;;;;;;;6.97;2.65;;;32.20;46.20;;;32.84;30.14;95406.38;5087541;28;20957;-58
2023/08/14 08:56:49;;;;;;;2.55;2.45;;;32.20;46.50;;;33.00;30.32;95395.50;5090556;28;20201;-58
2023/08/14 08:59:17;;;;;;;2.47;2.38;;;32.20;46.50;;;33.23;29.84;95397.78;5086181;28;20310;-57
2023/08/14 09:01:44;;;;;;;2.55;2.17;;;32.40;46.60;;;33.38;29.63;95387.97;5092133;28;20241;-59
2023/08/14 09:04:11;;;;;;;6.22;3.00;;;32.50;45.80;;;33.41;29.32;95401.06;5093537;28;20289;-58
2023/08/14 09:06:39;;;;;;;5.93;2.30;;;32.60;45.40;;;33.36;29.08;95381.97;5087134;28;20565;-59
2023/08/14 09:09:08;;;;;;;8.55;2.70;;;32.60;45.40;;;33.50;28.75;95388.50;5089095;28;20232;-58
2023/08/14 09:11:35;;;;;;;6.28;2.35;;;32.70;44.70;;;33.72;28.76;95387.44;5089070;28;20649;-60
2023/08/14 09:14:03;;;;;;;3.10;2.90;;;32.80;45.60;;;34.03;28.98;95379.22;5086894;28;20824;-57
2023/08/14 09:16:30;;;;;;;8.90;2.83;;;33.10;44.90;;;34.25;29.00;95377.00;5090916;28;20260;-56
2023/08/14 09:18:58;;;;;;;2.67;2.58;;;33.30;44.60;;;34.37;27.85;95375.88;5098418;28;20211;-59
2023/08/14 09:21:26;;;;;;;3.40;2.40;;;33.50;44.30;;;34.53;27.30;95376.63;5090500;28;20223;-58
2023/08/14 09:23:53;;;;;;;4.03;2.72;;;33.60;42.40;;;34.65;27.07;95379.84;5087105;28;20255;-57
2023/08/14 09:26:22;;;;;;;3.92;2.80;;;33.80;42.50;;;34.74;27.27;95383.63;5090495;28;20207;-58
2023/08/14 09:28:49;;;;;;;10.00;3.80;;;33.90;41.80;;;34.81;27.28;95372.41;5091198;28;20231;-58
2023/08/14 09:31:16;;;;;;;4.25;2.95;;;34.00;42.60;;;34.85;26.50;95357.09;5087270;28;20204;-57
2023/08/14 09:33:45;;;;;;;6.05;3.35;;;34.00;41.90;;;34.90;26.79;95367.19;5093454;28;20238;-59
2023/08/14 09:36:13;;;;;;;4.40;4.00;;;34.10;42.60;;;34.91;27.35;95360.63;5088168;28;20516;-59
2023/08/14 09:38:40;;;;;;;6.32;3.35;;;34.10;41.80;;;34.91;27.28;95364.16;5090932;28;20230;-57
2023/08/14 09:41:07;;;;;;;3.92;3.65;;;34.10;41.80;;;34.95;27.30;95359.78;5094281;28;20223;-58
2023/08/14 09:43:36;;;;;;;2.47;2.38;;;34.10;41.90;;;34.97;26.49;95363.03;5093390;28;20832;-57
2023/08/14 09:46:04;;;;;;;4.18;3.10;;;34.20;41.30;;;34.83;26.16;95362.03;5086217;28;20717;-58
2023/08/14 09:48:41;;;;;;;3.47;2.50;;;34.10;41.60;;;34.70;26.35;95365.34;5090013;28;20725;-58
2023/08/14 09:51:11;;;;;;;2.80;2.60;;;34.00;41.50;;;34.72;26.91;95363.97;5093695;28;20662;-57
2023/08/14 09:53:45;;;;;;;4.40;3.10;;;33.90;41.80;;;34.82;26.59;95360.41;5092524;28;20276;-58
2023/08/14 09:56:13;;;;;;;4.15;2.97;;;34.00;41.90;;;34.91;27.02;95355.16;5090674;28;20195;-59
2023/08/14 09:58:42;;;;;;;13.13;2.53;;;34.00;41.50;;;34.80;26.39;95348.94;5093212;28;20317;-59
2023/08/14 10:01:09;;;;;;;5.13;2.97;;;34.00;41.10;;;34.57;26.94;95348.47;5089815;28;20318;-58
2023/08/14 10:03:36;;;;;;;2.80;2.70;;;33.90;41.70;;;34.42;26.82;95354.81;5093853;28;20279;-57
2023/08/14 10:06:04;;;;;;;7.95;2.80;;;33.70;41.70;;;34.33;26.53;95350.22;5089424;28;20638;-57
2023/08/14 10:08:34;;;;;;;5.53;3.60;;;33.60;41.60;;;34.22;26.99;95354.84;5095774;28;20222;-57
2023/08/14 10:11:02;;;;;;;6.57;3.25;;;33.50;42.00;;;34.15;27.30;95349.69;5094667;28;20196;-58
2023/08/14 10:13:29;;;;;;;2.42;2.33;;;33.40;41.50;;;34.08;25.85;95349.16;5090787;28;20265;-58
2023/08/14 10:15:58;;;;;;;2.60;2.40;;;33.30;40.40;;;34.11;27.58;95345.88;5090854;28;20274;-59
2023/08/14 10:18:25;;;;;;;7.47;2.95;;;33.30;42.00;;;34.29;27.56;95342.56;5092760;28;20223;-59
2023/08/14 10:20:52;;;;;;;7.38;2.78;;;33.40;42.30;;;34.38;27.66;95342.00;5087433;28;20238;-58